Time;durP1;ratioP1;P1;durP2;ratioP2;P2;SDS_P1;SDS_P2;PMS_P1;PMS_P2;Temp;Humidity;BMP_temperature;BMP_pressure;BME280_temperature;BME280_humidity;BME280_pressure;Samples;Min_cycle;Max_cycle;Signal;HPM_P1;HPM_P2
2022/10/15 00:01:38;;;;;;;;;;;12.30;99.90;;;;;;6152910;23;20368;-80
2022/10/15 00:04:05;;;;;;;;;;;12.10;99.90;;;;;;6177762;23;19995;-80
2022/10/15 00:06:31;;;;;;;;;;;12.10;99.90;;;;;;6153862;23;20008;-80
2022/10/15 00:08:58;;;;;;;;;;;12.00;99.90;;;;;;6153612;23;20000;-80
2022/10/15 00:11:26;;;;;;;;;;;12.00;99.90;;;;;;6153423;23;19921;-80
2022/10/15 00:13:57;;;;;;;;;;;12.00;99.90;;;;;;6152641;23;20004;-80
2022/10/15 00:16:25;;;;;;;;;;;12.10;99.90;;;;;;6153481;23;20342;-80
2022/10/15 00:18:56;;;;;;;;;;;12.10;99.90;;;;;;6152870;23;19996;-79
2022/10/15 00:21:24;;;;;;;;;;;12.10;99.90;;;;;;6152783;23;20400;-80
2022/10/15 00:23:51;;;;;;;;;;;12.10;99.90;;;;;;6153138;23;20312;-81
2022/10/15 00:26:20;;;;;;;;;;;12.20;99.90;;;;;;6153428;23;19995;-80
2022/10/15 00:28:48;;;;;;;;;;;12.20;99.90;;;;;;6152484;23;19991;-81
2022/10/15 00:31:16;;;;;;;;;;;12.20;99.90;;;;;;6153396;23;19936;-80
2022/10/15 00:33:43;;;;;;;;;;;12.30;99.90;;;;;;6154143;23;20330;-80
2022/10/15 00:36:11;;;;;;;;;;;12.30;99.90;;;;;;6152443;23;20257;-80
2022/10/15 00:38:38;;;;;;;;;;;12.30;99.90;;;;;;6152709;23;19943;-80
2022/10/15 00:41:06;;;;;;;;;;;12.40;99.90;;;;;;6153269;23;20294;-80
2022/10/15 00:43:40;;;;;;;;;;;12.40;99.90;;;;;;6152055;23;19928;-80
2022/10/15 00:46:29;;;;;;;;;;;12.50;99.90;;;;;;6153223;23;20334;-80
2022/10/15 00:49:01;;;;;;;;;;;12.40;99.90;;;;;;6152745;23;20003;-80
2022/10/15 00:51:32;;;;;;;;;;;12.40;99.90;;;;;;6154566;23;19955;-81
2022/10/15 00:53:59;;;;;;;;;;;12.40;99.90;;;;;;6152800;23;19921;-81
2022/10/15 00:56:26;;;;;;;;;;;12.50;99.90;;;;;;6152966;23;20396;-80
2022/10/15 00:58:53;;;;;;;;;;;12.50;99.90;;;;;;6152676;23;20275;-81
2022/10/15 01:01:20;;;;;;;;;;;12.50;99.90;;;;;;6129097;23;19921;-80
2022/10/15 01:03:48;;;;;;;;;;;12.50;99.90;;;;;;6127847;23;19921;-79
2022/10/15 01:06:14;;;;;;;;;;;12.50;99.90;;;;;;6128579;23;19920;-79
2022/10/15 01:08:41;;;;;;;;;;;12.50;99.90;;;;;;6128121;23;19948;-80
2022/10/15 01:11:23;;;;;;;;;;;12.60;99.90;;;;;;6129280;23;20003;-80
2022/10/15 01:14:01;;;;;;;;;;;12.60;99.90;;;;;;6130021;23;19995;-79
2022/10/15 01:16:35;;;;;;;;;;;12.60;99.90;;;;;;6156384;23;19928;-79
2022/10/15 01:19:28;;;;;;;;;;;12.60;99.90;;;;;;6130216;23;19936;-79
2022/10/15 01:21:57;;;;;;;;;;;12.60;99.90;;;;;;6107198;23;19921;-80
2022/10/15 01:24:27;;;;;;;;;;;12.60;99.90;;;;;;6130707;23;20242;-80
2022/10/15 01:27:16;;;;;;;;;;;12.60;99.90;;;;;;6129960;23;19921;-80
2022/10/15 01:29:55;;;;;;;;;;;12.60;99.90;;;;;;6129406;23;19944;-79
2022/10/15 01:32:26;;;;;;;;;;;12.70;99.90;;;;;;6130321;23;19931;-79
2022/10/15 01:34:58;;;;;;;;;;;12.70;99.90;;;;;;6129761;23;19940;-80
2022/10/15 01:37:31;;;;;;;;;;;12.80;99.90;;;;;;6130655;23;19921;-80
2022/10/15 01:40:10;;;;;;;;;;;12.80;99.90;;;;;;6129681;23;19944;-80
2022/10/15 01:42:57;;;;;;;;;;;12.90;99.90;;;;;;6130169;23;20027;-81
2022/10/15 01:45:30;;;;;;;;;;;12.90;99.90;;;;;;6155755;23;19968;-80
2022/10/15 01:47:59;;;;;;;;;;;12.90;99.90;;;;;;6130311;23;19921;-80
2022/10/15 01:50:27;;;;;;;;;;;12.80;99.90;;;;;;6129523;23;20084;-80
2022/10/15 01:52:55;;;;;;;;;;;12.90;99.90;;;;;;6130336;23;19920;-81
2022/10/15 01:55:22;;;;;;;;;;;12.90;99.90;;;;;;6129457;23;19935;-79
2022/10/15 01:57:49;;;;;;;;;;;12.90;99.90;;;;;;6143687;23;20304;-79
2022/10/15 02:00:16;;;;;;;;;;;13.00;99.90;;;;;;6153195;23;20393;-80
2022/10/15 02:02:43;;;;;;;;;;;13.00;99.90;;;;;;6154623;23;20004;-78
2022/10/15 02:05:31;;;;;;;;;;;13.00;99.90;;;;;;6153606;23;19921;-81
2022/10/15 02:08:04;;;;;;;;;;;13.10;99.90;;;;;;6154667;23;19952;-79
2022/10/15 02:10:40;;;;;;;;;;;13.10;99.90;;;;;;6154001;23;20000;-80
2022/10/15 02:13:19;;;;;;;;;;;13.20;99.90;;;;;;6152595;23;19924;-80
2022/10/15 02:16:05;;;;;;;;;;;13.20;99.90;;;;;;6154529;23;19992;-80
2022/10/15 02:18:42;;;;;;;;;;;13.20;99.90;;;;;;6154032;23;19940;-80
2022/10/15 02:21:18;;;;;;;;;;;13.20;99.90;;;;;;6153285;23;19996;-80
2022/10/15 02:23:48;;;;;;;;;;;13.30;99.90;;;;;;6154033;23;20235;-80
2022/10/15 02:26:15;;;;;;;;;;;13.30;99.90;;;;;;6154840;23;20338;-80
2022/10/15 02:28:46;;;;;;;;;;;13.30;99.90;;;;;;6154234;23;20250;-80
2022/10/15 02:31:14;;;;;;;;;;;13.30;99.90;;;;;;6153921;23;19925;-79
2022/10/15 02:33:42;;;;;;;;;;;13.30;99.90;;;;;;6153487;23;20202;-80
2022/10/15 02:36:09;;;;;;;;;;;13.30;99.90;;;;;;6153447;23;19931;-80
2022/10/15 02:38:36;;;;;;;;;;;13.40;99.90;;;;;;6155571;23;19996;-80
2022/10/15 02:41:04;;;;;;;;;;;13.50;99.90;;;;;;6154851;23;19948;-82
2022/10/15 02:43:30;;;;;;;;;;;13.50;99.90;;;;;;6154573;23;19975;-80
2022/10/15 02:45:57;;;;;;;;;;;13.60;99.90;;;;;;6154237;23;20000;-79
2022/10/15 02:48:24;;;;;;;;;;;13.60;99.90;;;;;;6153896;23;19932;-84
2022/10/15 02:50:50;;;;;;;;;;;13.70;99.90;;;;;;6154117;23;19921;-85
2022/10/15 02:53:17;;;;;;;;;;;13.60;99.90;;;;;;6154685;23;19924;-85
2022/10/15 02:55:45;;;;;;;;;;;13.60;99.90;;;;;;6153945;23;20036;-85
2022/10/15 02:58:12;;;;;;;;;;;13.50;99.90;;;;;;6153447;23;19995;-84
2022/10/15 03:00:39;;;;;;;;;;;13.50;99.90;;;;;;6155221;23;20011;-85
2022/10/15 03:03:05;;;;;;;;;;;13.50;99.90;;;;;;6155115;23;19920;-85
2022/10/15 03:05:33;;;;;;;;;;;13.50;99.90;;;;;;6153288;23;19921;-85
2022/10/15 03:08:00;;;;;;;;;;;13.50;99.90;;;;;;6154110;23;19927;-85
2022/10/15 03:10:27;;;;;;;;;;;13.50;99.90;;;;;;6152875;23;19936;-85
2022/10/15 03:12:53;;;;;;;;;;;13.60;99.90;;;;;;6154015;23;19924;-86
2022/10/15 03:15:20;;;;;;;;;;;13.60;99.90;;;;;;6152964;23;19924;-85
2022/10/15 03:17:47;;;;;;;;;;;13.70;99.90;;;;;;6154142;23;19926;-86
2022/10/15 03:20:13;;;;;;;;;;;13.80;99.90;;;;;;6152677;23;19991;-86
2022/10/15 03:22:40;;;;;;;;;;;13.80;99.90;;;;;;6153737;23;19920;-85
2022/10/15 03:25:07;;;;;;;;;;;13.90;99.90;;;;;;6153971;23;20056;-85
2022/10/15 03:27:34;;;;;;;;;;;14.00;99.90;;;;;;6177406;23;19924;-85
2022/10/15 03:30:00;;;;;;;;;;;14.00;99.90;;;;;;6153771;23;19921;-85
2022/10/15 03:32:27;;;;;;;;;;;14.00;99.90;;;;;;6177669;23;20265;-85
2022/10/15 03:34:57;;;;;;;;;;;14.00;99.90;;;;;;6153758;23;19935;-85
2022/10/15 03:37:24;;;;;;;;;;;14.00;99.90;;;;;;6153080;23;19931;-85
2022/10/15 03:39:51;;;;;;;;;;;14.00;99.90;;;;;;6153689;23;20290;-85
2022/10/15 03:42:17;;;;;;;;;;;14.00;99.90;;;;;;6153077;23;19924;-86
2022/10/15 03:44:44;;;;;;;;;;;14.00;99.90;;;;;;6153896;23;19921;-85
2022/10/15 03:47:11;;;;;;;;;;;14.10;99.90;;;;;;6153163;23;20004;-85
2022/10/15 03:49:38;;;;;;;;;;;14.10;99.90;;;;;;6153684;23;19924;-85
2022/10/15 03:52:04;;;;;;;;;;;14.00;99.90;;;;;;6178154;23;20334;-86
2022/10/15 03:54:31;;;;;;;;;;;13.90;99.90;;;;;;6153081;23;19927;-85
2022/10/15 03:56:57;;;;;;;;;;;13.90;99.90;;;;;;6153314;23;19931;-85
2022/10/15 03:59:24;;;;;;;;;;;13.80;99.90;;;;;;6177558;23;19976;-86
2022/10/15 04:01:51;;;;;;;;;;;13.70;99.90;;;;;;6153673;23;19983;-85
2022/10/15 04:04:18;;;;;;;;;;;13.70;99.90;;;;;;6152621;23;20391;-85
2022/10/15 04:06:46;;;;;;;;;;;13.60;99.90;;;;;;6153529;23;20397;-86
2022/10/15 04:09:14;;;;;;;;;;;13.60;99.90;;;;;;6152816;23;19928;-85
2022/10/15 04:11:40;;;;;;;;;;;13.60;99.90;;;;;;6155191;23;19927;-86
2022/10/15 04:14:07;;;;;;;;;;;13.60;99.90;;;;;;6153433;23;19996;-85
2022/10/15 04:16:34;;;;;;;;;;;13.50;99.90;;;;;;6152287;23;19996;-86
2022/10/15 04:19:01;;;;;;;;;;;13.60;99.90;;;;;;6153710;23;19996;-86
2022/10/15 04:21:29;;;;;;;;;;;13.60;99.90;;;;;;6152412;23;19972;-86
2022/10/15 04:23:56;;;;;;;;;;;13.60;99.90;;;;;;6153343;23;19996;-85
2022/10/15 04:26:23;;;;;;;;;;;13.60;99.90;;;;;;6152218;23;20243;-85
2022/10/15 04:28:49;;;;;;;;;;;13.60;99.90;;;;;;6152919;23;20333;-85
2022/10/15 04:31:16;;;;;;;;;;;13.50;99.90;;;;;;6152556;23;19920;-85
2022/10/15 04:33:43;;;;;;;;;;;13.50;99.90;;;;;;6153072;23;19944;-85
2022/10/15 04:36:11;;;;;;;;;;;13.40;99.90;;;;;;6153389;23;19987;-86
2022/10/15 04:38:38;;;;;;;;;;;13.40;99.90;;;;;;6152902;23;19924;-86
2022/10/15 04:41:06;;;;;;;;;;;13.30;99.90;;;;;;6153094;23;20342;-85
2022/10/15 04:43:33;;;;;;;;;;;13.40;99.90;;;;;;6152640;23;20309;-84
2022/10/15 04:46:00;;;;;;;;;;;13.40;99.90;;;;;;6152573;23;19920;-84
2022/10/15 04:48:28;;;;;;;;;;;13.40;99.90;;;;;;6152530;23;19948;-84
2022/10/15 04:50:55;;;;;;;;;;;13.40;99.90;;;;;;6153057;23;19920;-84
2022/10/15 04:53:22;;;;;;;;;;;13.30;99.90;;;;;;6152253;23;20000;-84
2022/10/15 04:55:48;;;;;;;;;;;13.40;99.90;;;;;;6153059;23;19925;-84
2022/10/15 04:58:15;;;;;;;;;;;13.40;99.90;;;;;;6153663;23;19940;-84
2022/10/15 05:00:42;;;;;;;;;;;13.40;99.90;;;;;;6128738;23;20024;-84
2022/10/15 05:03:09;;;;;;;;;;;13.40;99.90;;;;;;6128858;23;19948;-84
2022/10/15 05:05:35;;;;;;;;;;;13.30;99.90;;;;;;6127586;23;19935;-84
2022/10/15 05:08:03;;;;;;;;;;;13.40;99.90;;;;;;6128869;23;19920;-84
2022/10/15 05:10:30;;;;;;;;;;;13.40;99.90;;;;;;6127442;23;19921;-84
2022/10/15 05:12:57;;;;;;;;;;;13.40;99.90;;;;;;6128524;23;19921;-83
2022/10/15 05:15:24;;;;;;;;;;;13.40;99.90;;;;;;6127871;23;19927;-83
2022/10/15 05:17:51;;;;;;;;;;;13.30;99.90;;;;;;6129181;23;20226;-84
2022/10/15 05:20:18;;;;;;;;;;;13.30;99.90;;;;;;6127708;23;19920;-83
2022/10/15 05:22:45;;;;;;;;;;;13.30;99.90;;;;;;6128484;23;20414;-83
2022/10/15 05:25:11;;;;;;;;;;;13.30;99.90;;;;;;6128841;23;20253;-84
2022/10/15 05:27:38;;;;;;;;;;;13.30;99.90;;;;;;6127709;23;20012;-84
2022/10/15 05:30:05;;;;;;;;;;;13.40;99.90;;;;;;6128519;23;19927;-83
2022/10/15 05:32:31;;;;;;;;;;;13.40;99.90;;;;;;6127672;23;19920;-84
2022/10/15 05:34:58;;;;;;;;;;;13.50;99.90;;;;;;6152861;23;20015;-83
2022/10/15 05:37:25;;;;;;;;;;;13.50;99.90;;;;;;6127588;23;20432;-83
2022/10/15 05:39:52;;;;;;;;;;;13.60;99.90;;;;;;6128403;23;19940;-83
2022/10/15 05:42:19;;;;;;;;;;;13.70;99.90;;;;;;6127952;23;20024;-83
2022/10/15 05:44:45;;;;;;;;;;;13.70;99.90;;;;;;6128550;23;20398;-84
2022/10/15 05:47:12;;;;;;;;;;;13.70;99.90;;;;;;6128260;23;19921;-84
2022/10/15 05:49:39;;;;;;;;;;;13.70;99.90;;;;;;6127961;23;19991;-83
2022/10/15 05:52:05;;;;;;;;;;;13.80;99.90;;;;;;6153791;23;19921;-83
2022/10/15 05:54:32;;;;;;;;;;;13.80;99.90;;;;;;6127690;23;19999;-86
2022/10/15 05:56:59;;;;;;;;;;;13.80;99.90;;;;;;6154516;23;19928;-85
2022/10/15 05:59:26;;;;;;;;;;;13.80;99.90;;;;;;6155236;23;19920;-85
2022/10/15 06:01:53;;;;;;;;;;;13.80;99.90;;;;;;6130942;23;19971;-85
2022/10/15 06:04:20;;;;;;;;;;;13.80;99.90;;;;;;6128621;23;19943;-83
2022/10/15 06:06:47;;;;;;;;;;;13.80;99.90;;;;;;6130406;23;19920;-83
2022/10/15 06:09:14;;;;;;;;;;;13.80;99.90;;;;;;6129380;23;19924;-83
2022/10/15 06:11:40;;;;;;;;;;;13.80;99.90;;;;;;6128521;23;19996;-86
2022/10/15 06:14:07;;;;;;;;;;;13.80;99.90;;;;;;6129706;23;20293;-85
2022/10/15 06:16:34;;;;;;;;;;;13.80;99.90;;;;;;6129102;23;19924;-86
2022/10/15 06:19:02;;;;;;;;;;;13.80;99.90;;;;;;6129758;23;19948;-86
2022/10/15 06:21:29;;;;;;;;;;;13.80;99.90;;;;;;6128854;23;19962;-86
2022/10/15 06:23:57;;;;;;;;;;;13.90;99.90;;;;;;6130445;23;19927;-85
2022/10/15 06:26:24;;;;;;;;;;;13.90;99.90;;;;;;6129455;23;19995;-85
2022/10/15 06:28:51;;;;;;;;;;;13.90;99.90;;;;;;6129294;23;19947;-85
2022/10/15 06:31:17;;;;;;;;;;;14.00;99.80;;;;;;6153657;23;19971;-86
2022/10/15 06:33:45;;;;;;;;;;;14.00;99.80;;;;;;6126998;23;19920;-86
2022/10/15 06:36:12;;;;;;;;;;;14.00;99.60;;;;;;6129564;23;19920;-85
2022/10/15 06:38:39;;;;;;;;;;;14.00;99.40;;;;;;6152497;23;19964;-85
2022/10/15 06:41:06;;;;;;;;;;;14.00;99.20;;;;;;6129528;23;19940;-86
2022/10/15 06:43:33;;;;;;;;;;;14.10;99.20;;;;;;6129154;23;19932;-86
2022/10/15 06:46:01;;;;;;;;;;;14.10;99.20;;;;;;6130117;23;19951;-86
2022/10/15 06:48:28;;;;;;;;;;;14.10;99.10;;;;;;6128623;23;19988;-85
2022/10/15 06:50:56;;;;;;;;;;;14.10;99.00;;;;;;6129965;23;19927;-85
2022/10/15 06:53:23;;;;;;;;;;;14.10;98.80;;;;;;6127935;23;19967;-85
2022/10/15 06:55:50;;;;;;;;;;;14.20;98.60;;;;;;6129183;23;19947;-86
2022/10/15 06:58:17;;;;;;;;;;;14.20;98.30;;;;;;6148296;23;20281;-86
2022/10/15 07:00:44;;;;;;;;;;;14.20;98.00;;;;;;6176070;23;19948;-85
2022/10/15 07:03:10;;;;;;;;;;;14.20;98.10;;;;;;6153558;23;20404;-86
2022/10/15 07:05:37;;;;;;;;;;;14.30;97.60;;;;;;6153198;23;20238;-85
2022/10/15 07:08:04;;;;;;;;;;;14.30;97.70;;;;;;6153674;23;19925;-85
2022/10/15 07:10:31;;;;;;;;;;;14.40;97.40;;;;;;6150438;23;19999;-86
2022/10/15 07:13:01;;;;;;;;;;;14.50;97.30;;;;;;6155038;23;19952;-82
2022/10/15 07:15:28;;;;;;;;;;;14.60;97.20;;;;;;6153365;23;20348;-83
2022/10/15 07:17:56;;;;;;;;;;;14.70;96.20;;;;;;6153912;23;19924;-86
2022/10/15 07:20:23;;;;;;;;;;;14.80;96.30;;;;;;6153780;23;19973;-85
2022/10/15 07:22:50;;;;;;;;;;;14.90;96.30;;;;;;6153008;23;19925;-85
2022/10/15 07:25:17;;;;;;;;;;;15.00;96.00;;;;;;6153530;23;19927;-86
2022/10/15 07:27:44;;;;;;;;;;;15.20;96.50;;;;;;6152967;23;20253;-85
2022/10/15 07:30:11;;;;;;;;;;;15.30;95.30;;;;;;6153960;23;19975;-85
2022/10/15 07:32:38;;;;;;;;;;;15.40;94.60;;;;;;6152866;23;19921;-86
2022/10/15 07:35:04;;;;;;;;;;;15.60;94.10;;;;;;6153788;23;19920;-86
2022/10/15 07:37:31;;;;;;;;;;;15.70;93.00;;;;;;6153460;23;19921;-86
2022/10/15 07:39:58;;;;;;;;;;;15.80;92.70;;;;;;6153981;23;19970;-86
2022/10/15 07:42:25;;;;;;;;;;;15.90;91.60;;;;;;6153387;23;19944;-84
2022/10/15 07:44:51;;;;;;;;;;;16.00;91.40;;;;;;6152907;23;20334;-86
2022/10/15 07:47:18;;;;;;;;;;;16.10;91.20;;;;;;6153701;23;20243;-86
2022/10/15 07:49:45;;;;;;;;;;;16.20;90.80;;;;;;6152619;23;19921;-85
2022/10/15 07:52:12;;;;;;;;;;;16.30;93.10;;;;;;6153575;23;19927;-86
2022/10/15 07:54:38;;;;;;;;;;;16.30;92.40;;;;;;6152709;23;20253;-86
2022/10/15 07:57:08;;;;;;;;;;;16.40;90.60;;;;;;6153140;23;19921;-85
2022/10/15 07:59:35;;;;;;;;;;;16.40;90.40;;;;;;6177362;23;20256;-83
2022/10/15 08:02:01;;;;;;;;;;;16.50;90.50;;;;;;6153472;23;20011;-84
2022/10/15 08:04:28;;;;;;;;;;;16.70;88.20;;;;;;6153830;23;20282;-84
2022/10/15 08:06:55;;;;;;;;;;;16.90;90.10;;;;;;6153258;23;19960;-85
2022/10/15 08:09:22;;;;;;;;;;;17.00;85.30;;;;;;6153483;23;19921;-86
2022/10/15 08:11:48;;;;;;;;;;;17.20;86.40;;;;;;6152555;23;20000;-86
2022/10/15 08:14:15;;;;;;;;;;;17.30;85.50;;;;;;6153222;23;19920;-86
2022/10/15 08:16:42;;;;;;;;;;;17.40;87.10;;;;;;6152921;23;20230;-86
2022/10/15 08:19:08;;;;;;;;;;;17.40;87.90;;;;;;6153814;23;20353;-86
2022/10/15 08:21:35;;;;;;;;;;;17.40;89.30;;;;;;6152285;23;19920;-86
2022/10/15 08:24:02;;;;;;;;;;;17.40;90.20;;;;;;6153287;23;20253;-86
2022/10/15 08:26:29;;;;;;;;;;;17.40;91.00;;;;;;6153767;23;19999;-86
2022/10/15 08:28:55;;;;;;;;;;;17.50;91.50;;;;;;6152322;23;20000;-86
2022/10/15 08:31:22;;;;;;;;;;;17.50;91.40;;;;;;6177760;23;20315;-85
2022/10/15 08:33:49;;;;;;;;;;;17.60;91.10;;;;;;6152575;23;19983;-86
2022/10/15 08:36:16;;;;;;;;;;;17.80;90.30;;;;;;6153327;23;19999;-85
2022/10/15 08:38:42;;;;;;;;;;;17.90;90.20;;;;;;6152478;23;19920;-86
2022/10/15 08:41:35;;;;;;;;;;;18.10;88.40;;;;;;6152967;23;20290;-83
2022/10/15 08:44:02;;;;;;;;;;;18.20;84.80;;;;;;6152209;23;20337;-86
2022/10/15 08:46:29;;;;;;;;;;;18.40;79.30;;;;;;6153132;23;20318;-87
2022/10/15 08:48:58;;;;;;;;;;;18.60;76.30;;;;;;6152443;23;19920;-86
2022/10/15 08:51:28;;;;;;;;;;;18.70;75.60;;;;;;6153299;23;19931;-86
2022/10/15 08:54:02;;;;;;;;;;;18.70;73.20;;;;;;6152249;23;19921;-86
2022/10/15 08:56:32;;;;;;;;;;;18.80;75.10;;;;;;6153302;23;19921;-86
2022/10/15 08:59:17;;;;;;;;;;;18.90;73.40;;;;;;6128079;23;19928;-86
2022/10/15 09:01:50;;;;;;;;;;;19.00;73.20;;;;;;6128195;23;19955;-85
2022/10/15 09:04:23;;;;;;;;;;;19.10;71.70;;;;;;6129004;23;19920;-86
2022/10/15 09:06:56;;;;;;;;;;;19.20;70.30;;;;;;6152462;23;19948;-87
2022/10/15 09:09:46;;;;;;;;;;;19.30;71.30;;;;;;6153635;23;20312;-86
2022/10/15 09:12:36;;;;;;;;;;;19.50;69.30;;;;;;6128336;23;19921;-84
2022/10/15 09:15:07;;;;;;;;;;;19.70;68.20;;;;;;6120492;23;19959;-86
2022/10/15 09:17:36;;;;;;;;;;;19.80;69.40;;;;;;6128756;23;19932;-87
2022/10/15 09:20:06;;;;;;;;;;;19.70;68.10;;;;;;6127718;23;19927;-87
2022/10/15 09:22:34;;;;;;;;;;;19.80;70.30;;;;;;6128877;23;19920;-86
2022/10/15 09:25:12;;;;;;;;;;;19.90;66.30;;;;;;6127773;23;19956;-86
2022/10/15 09:27:39;;;;;;;;;;;19.80;68.10;;;;;;6154546;23;19930;-87
2022/10/15 09:30:06;;;;;;;;;;;19.80;66.70;;;;;;6127472;23;20340;-86
2022/10/15 09:32:50;;;;;;;;;;;19.80;68.50;;;;;;6129678;23;19920;-87
2022/10/15 09:35:25;;;;;;;;;;;19.90;68.00;;;;;;6130354;23;19931;-87
2022/10/15 09:37:57;;;;;;;;;;;20.00;68.10;;;;;;6130222;23;19927;-87
2022/10/15 09:40:33;;;;;;;;;;;20.00;67.80;;;;;;6131911;23;19921;-87
2022/10/15 09:43:00;;;;;;;;;;;20.10;68.20;;;;;;6130482;23;19941;-86
2022/10/15 09:45:27;;;;;;;;;;;20.20;68.20;;;;;;6154594;23;19944;-86
2022/10/15 09:47:59;;;;;;;;;;;20.20;68.00;;;;;;6155905;23;20306;-88
2022/10/15 09:50:29;;;;;;;;;;;20.20;68.70;;;;;;6130423;23;21356;-87
2022/10/15 09:53:02;;;;;;;;;;;20.20;68.70;;;;;;6130293;23;19959;-88
2022/10/15 09:55:47;;;;;;;;;;;20.20;69.20;;;;;;6128160;23;19963;-88
2022/10/15 09:58:25;;;;;;;;;;;20.30;68.10;;;;;;6147914;23;20320;-89
2022/10/15 10:00:53;;;;;;;;;;;20.30;67.60;;;;;;6158374;23;20381;-89
2022/10/15 10:03:22;;;;;;;;;;;20.30;67.20;;;;;;6154732;23;19948;-89
2022/10/15 10:05:49;;;;;;;;;;;20.10;66.10;;;;;;6158603;23;20235;-88
2022/10/15 10:08:21;;;;;;;;;;;20.00;67.80;;;;;;6159975;23;19920;-86
2022/10/15 10:10:58;;;;;;;;;;;20.00;68.10;;;;;;6162210;23;19955;-86
2022/10/15 10:13:26;;;;;;;;;;;20.20;68.90;;;;;;6155618;23;19924;-88
2022/10/15 10:15:54;;;;;;;;;;;20.30;69.50;;;;;;6155086;23;19931;-89
2022/10/15 10:18:25;;;;;;;;;;;20.50;69.00;;;;;;6154689;23;19996;-88
2022/10/15 10:20:58;;;;;;;;;;;20.50;65.20;;;;;;6155009;23;19996;-86
2022/10/15 10:23:30;;;;;;;;;;;20.70;66.50;;;;;;6154902;23;19996;-88
2022/10/15 10:25:57;;;;;;;;;;;20.80;65.40;;;;;;6154367;23;20329;-89
2022/10/15 10:28:32;;;;;;;;;;;20.90;65.50;;;;;;6155841;23;19924;-87
2022/10/15 10:31:02;;;;;;;;;;;20.90;67.10;;;;;;6156758;23;19924;-87
2022/10/15 10:33:30;;;;;;;;;;;20.90;65.10;;;;;;6155449;23;19975;-88
2022/10/15 10:35:58;;;;;;;;;;;21.00;63.50;;;;;;6157947;23;19921;-89
2022/10/15 10:38:36;;;;;;;;;;;20.90;64.00;;;;;;6168496;23;19920;-87
2022/10/15 10:41:06;;;;;;;;;;;21.10;64.70;;;;;;6158971;23;19921;-88
2022/10/15 10:43:34;;;;;;;;;;;21.20;64.60;;;;;;6165099;23;19921;-87
2022/10/15 10:46:13;;;;;;;;;;;21.40;64.50;;;;;;6166393;23;19920;-88
2022/10/15 10:48:44;;;;;;;;;;;21.40;63.60;;;;;;6163365;23;19921;-88
2022/10/15 10:51:12;;;;;;;;;;;21.40;63.00;;;;;;6166173;23;19944;-87
2022/10/15 10:54:04;;;;;;;;;;;21.30;62.10;;;;;;6159036;23;19924;-89
2022/10/15 10:56:36;;;;;;;;;;;21.40;64.80;;;;;;6161762;23;19932;-88
2022/10/15 10:59:11;;;;;;;;;;;21.60;63.70;;;;;;6168247;23;19920;-85
2022/10/15 11:01:38;;;;;;;;;;;21.80;64.20;;;;;;6136093;23;19931;-87
2022/10/15 11:04:11;;;;;;;;;;;22.00;62.10;;;;;;6131785;23;19952;-87
2022/10/15 11:06:49;;;;;;;;;;;22.20;61.30;;;;;;6139482;23;19947;-86
2022/10/15 11:09:25;;;;;;;;;;;22.00;62.30;;;;;;6154286;23;19904;-86
2022/10/15 11:11:58;;;;;;;;;;;22.20;61.10;;;;;;6148245;23;19920;-85
2022/10/15 11:14:25;;;;;;;;;;;22.20;60.90;;;;;;6168228;23;19940;-86
2022/10/15 11:17:02;;;;;;;;;;;22.10;59.70;;;;;;6140171;23;19920;-86
2022/10/15 11:19:35;;;;;;;;;;;22.20;60.40;;;;;;6143887;23;19915;-84
2022/10/15 11:22:30;;;;;;;;;;;22.30;61.50;;;;;;6166231;23;19957;-84
2022/10/15 11:25:16;;;;;;;;;;;22.30;60.40;;;;;;6153489;23;19964;-82
2022/10/15 11:27:50;;;;;;;;;;;22.50;59.00;;;;;;6153384;23;19920;-85
2022/10/15 11:30:38;;;;;;;;;;;22.30;59.30;;;;;;6153371;23;19927;-84
2022/10/15 11:33:30;;;;;;;;;;;22.30;59.00;;;;;;6148524;23;19965;-84
2022/10/15 11:35:57;;;;;;;;;;;22.30;60.20;;;;;;6141484;23;20304;-86
2022/10/15 11:38:33;;;;;;;;;;;22.20;62.10;;;;;;6147842;23;20372;-85
2022/10/15 11:41:09;;;;;;;;;;;22.30;60.80;;;;;;6147535;23;19932;-85
2022/10/15 11:43:55;;;;;;;;;;;22.00;61.80;;;;;;6176835;23;19905;-85
2022/10/15 11:46:40;;;;;;;;;;;22.00;62.10;;;;;;6141448;23;19937;-86
2022/10/15 11:49:30;;;;;;;;;;;22.10;61.00;;;;;;6149538;23;19948;-85
2022/10/15 11:51:59;;;;;;;;;;;21.90;59.40;;;;;;6152876;23;19944;-85
2022/10/15 11:54:44;;;;;;;;;;;22.10;60.10;;;;;;6148799;23;19931;-85
2022/10/15 11:57:12;;;;;;;;;;;22.00;59.30;;;;;;6150514;23;19904;-85
2022/10/15 11:59:46;;;;;;;;;;;22.00;60.50;;;;;;6166122;23;19932;-87
2022/10/15 12:02:12;;;;;;;;;;;22.00;62.30;;;;;;6161853;23;19928;-86
2022/10/15 12:04:41;;;;;;;;;;;22.00;61.80;;;;;;6156453;23;19929;-86
2022/10/15 12:07:12;;;;;;;;;;;21.90;61.20;;;;;;6163497;23;19920;-86
2022/10/15 12:09:42;;;;;;;;;;;21.90;63.60;;;;;;6170002;23;19924;-86
2022/10/15 12:12:34;;;;;;;;;;;21.90;62.00;;;;;;6170074;23;19925;-86
2022/10/15 12:15:16;;;;;;;;;;;21.90;61.60;;;;;;6142300;23;19924;-87
2022/10/15 12:17:58;;;;;;;;;;;21.80;62.20;;;;;;6167284;23;19932;-87
2022/10/15 12:20:26;;;;;;;;;;;21.60;63.60;;;;;;6163413;23;19904;-85
2022/10/15 12:22:54;;;;;;;;;;;21.50;61.70;;;;;;6176324;23;19905;-85
2022/10/15 12:25:32;;;;;;;;;;;21.60;63.40;;;;;;6172718;23;19904;-84
2022/10/15 12:28:04;;;;;;;;;;;21.50;63.40;;;;;;6175077;23;19928;-84
2022/10/15 12:30:36;;;;;;;;;;;21.30;63.70;;;;;;6174332;23;19932;-84
2022/10/15 12:33:19;;;;;;;;;;;21.30;64.60;;;;;;6177491;23;19940;-84
2022/10/15 12:35:52;;;;;;;;;;;21.50;64.60;;;;;;6162741;23;19921;-86
2022/10/15 12:38:22;;;;;;;;;;;21.40;65.00;;;;;;6163009;23;19924;-84
2022/10/15 12:40:55;;;;;;;;;;;21.60;64.20;;;;;;6159160;23;19924;-86
2022/10/15 12:43:23;;;;;;;;;;;21.70;64.20;;;;;;6161283;23;19932;-86
2022/10/15 12:45:58;;;;;;;;;;;21.90;62.20;;;;;;6172488;23;19944;-85
2022/10/15 12:48:28;;;;;;;;;;;22.10;62.50;;;;;;6161208;23;19948;-86
2022/10/15 12:51:14;;;;;;;;;;;22.50;60.40;;;;;;6174276;23;19928;-84
2022/10/15 12:53:45;;;;;;;;;;;22.70;58.80;;;;;;6171692;23;19921;-86
2022/10/15 12:56:14;;;;;;;;;;;22.80;58.40;;;;;;6170258;23;19940;-85
2022/10/15 12:58:45;;;;;;;;;;;22.90;57.20;;;;;;6164996;23;20317;-87
2022/10/15 13:01:11;;;;;;;;;;;23.00;57.80;;;;;;6166337;23;19947;-86
2022/10/15 13:03:47;;;;;;;;;;;22.70;57.20;;;;;;6166280;23;19924;-87
2022/10/15 13:06:21;;;;;;;;;;;22.50;57.40;;;;;;6160574;23;19948;-87
2022/10/15 13:08:47;;;;;;;;;;;22.30;57.80;;;;;;6159282;23;19921;-87
2022/10/15 13:11:23;;;;;;;;;;;22.20;58.30;;;;;;6161333;23;19925;-88
2022/10/15 13:13:51;;;;;;;;;;;22.10;59.20;;;;;;6156573;23;20293;-88
2022/10/15 13:16:19;;;;;;;;;;;22.00;60.50;;;;;;6158349;23;20333;-89
2022/10/15 13:18:51;;;;;;;;;;;22.10;60.40;;;;;;6158944;23;19920;-89
2022/10/15 13:21:17;;;;;;;;;;;22.00;59.90;;;;;;6162927;23;19924;-90
2022/10/15 13:23:45;;;;;;;;;;;21.90;59.30;;;;;;6162361;23;19931;-89
2022/10/15 13:26:16;;;;;;;;;;;21.90;59.20;;;;;;6161082;23;20234;-89
2022/10/15 13:28:43;;;;;;;;;;;21.80;58.70;;;;;;6158599;23;19971;-90
2022/10/15 13:31:24;;;;;;;;;;;21.80;58.90;;;;;;6158203;23;19999;-85
2022/10/15 13:34:16;;;;;;;;;;;21.80;60.00;;;;;;6155877;23;19928;-84
2022/10/15 13:36:43;;;;;;;;;;;21.90;58.80;;;;;;6156855;23;20035;-83
2022/10/15 13:39:36;;;;;;;;;;;21.80;58.90;;;;;;6158779;23;19987;-82
2022/10/15 13:42:17;;;;;;;;;;;21.80;58.20;;;;;;6154569;23;20506;-85
2022/10/15 13:44:55;;;;;;;;;;;21.90;58.70;;;;;;6155744;23;19924;-85
2022/10/15 13:47:33;;;;;;;;;;;21.90;58.30;;;;;;6156470;23;20047;-86
2022/10/15 13:50:18;;;;;;;;;;;21.80;59.00;;;;;;6153542;23;19929;-86
2022/10/15 13:53:03;;;;;;;;;;;21.70;59.00;;;;;;6155862;23;19963;-85
2022/10/15 13:55:35;;;;;;;;;;;21.70;58.10;;;;;;6155503;23;20276;-85
2022/10/15 13:58:12;;;;;;;;;;;21.60;57.50;;;;;;6167691;23;19921;-84
2022/10/15 14:00:39;;;;;;;;;;;21.50;56.60;;;;;;6165858;23;19952;-84
2022/10/15 14:03:07;;;;;;;;;;;21.30;55.80;;;;;;6158855;23;19999;-82
2022/10/15 14:05:34;;;;;;;;;;;21.20;56.00;;;;;;6158179;23;19968;-83
2022/10/15 14:08:00;;;;;;;;;;;21.20;58.20;;;;;;6156999;23;19965;-84
2022/10/15 14:10:27;;;;;;;;;;;21.20;57.20;;;;;;6157663;23;20385;-83
2022/10/15 14:12:54;;;;;;;;;;;21.20;58.40;;;;;;6186272;23;19928;-84
2022/10/15 14:15:39;;;;;;;;;;;21.20;57.40;;;;;;6165931;23;19921;-85
2022/10/15 14:18:06;;;;;;;;;;;21.20;56.70;;;;;;6164993;23;19924;-83
2022/10/15 14:20:33;;;;;;;;;;;21.30;57.60;;;;;;6153400;23;19920;-83
2022/10/15 14:23:00;;;;;;;;;;;21.20;56.40;;;;;;6156843;23;20349;-85
2022/10/15 14:25:27;;;;;;;;;;;21.10;55.90;;;;;;6153453;23;19927;-84
2022/10/15 14:27:54;;;;;;;;;;;21.10;56.00;;;;;;6153134;23;19931;-84
2022/10/15 14:30:31;;;;;;;;;;;21.00;56.60;;;;;;6153464;23;20003;-84
2022/10/15 14:32:57;;;;;;;;;;;21.00;56.90;;;;;;6153804;23;19926;-83
2022/10/15 14:35:29;;;;;;;;;;;21.00;58.10;;;;;;6153847;23;19924;-83